Time;durP1;ratioP1;P1;durP2;ratioP2;P2;SDS_P1;SDS_P2;PMS_P1;PMS_P2;Temp;Humidity;BMP_temperature;BMP_pressure;BME280_temperature;BME280_humidity;BME280_pressure;Samples;Min_cycle;Max_cycle;Signal;HPM_P1;HPM_P2
2023/03/16 00:00:36;;;;;;;4.78;2.05;;;5.00;73.60;;;;;;5052865;28;20037;-66
2023/03/16 00:03:02;;;;;;;8.15;2.17;;;5.00;73.70;;;;;;5052465;28;20493;-66
2023/03/16 00:05:28;;;;;;;7.07;2.22;;;5.00;74.30;;;;;;5053789;28;20037;-66
2023/03/16 00:07:53;;;;;;;5.88;2.17;;;5.00;73.70;;;;;;5052735;28;20052;-66
2023/03/16 00:10:26;;;;;;;9.73;2.10;;;5.00;73.70;;;;;;5052427;28;20047;-67
2023/03/16 00:12:55;;;;;;;7.70;2.20;;;5.00;73.80;;;;;;5052490;28;20041;-66
2023/03/16 00:15:21;;;;;;;5.10;2.25;;;5.00;73.70;;;;;;5053510;28;20067;-67
2023/03/16 00:17:47;;;;;;;8.55;2.30;;;5.00;73.70;;;;;;5052329;28;20565;-66
2023/03/16 00:20:17;;;;;;;5.30;2.20;;;5.10;73.80;;;;;;5052279;28;20040;-66
2023/03/16 00:22:43;;;;;;;9.52;1.98;;;5.10;73.80;;;;;;5052244;28;20041;-66
2023/03/16 00:25:13;;;;;;;6.80;2.05;;;5.10;73.90;;;;;;5052353;28;20130;-67
2023/03/16 00:27:39;;;;;;;7.55;2.60;;;5.10;74.00;;;;;;5052186;28;20045;-66
2023/03/16 00:30:05;;;;;;;6.05;2.17;;;5.00;74.20;;;;;;5052146;28;20045;-66
2023/03/16 00:32:36;;;;;;;8.00;2.70;;;5.00;74.30;;;;;;5052071;28;20055;-67
2023/03/16 00:35:03;;;;;;;7.28;2.63;;;5.10;74.40;;;;;;5051982;28;20060;-66
2023/03/16 00:37:31;;;;;;;6.40;1.90;;;5.10;74.50;;;;;;5052003;28;20052;-66
2023/03/16 00:39:57;;;;;;;7.22;2.40;;;5.00;74.50;;;;;;5051998;28;20041;-66
2023/03/16 00:42:26;;;;;;;9.50;2.78;;;5.00;74.70;;;;;;5051965;28;20044;-66
2023/03/16 00:45:01;;;;;;;5.88;2.50;;;5.00;74.80;;;;;;5051859;28;20045;-67
2023/03/16 00:47:30;;;;;;;7.47;2.67;;;5.00;75.60;;;;;;5051935;28;20041;-66
2023/03/16 00:49:56;;;;;;;3.90;2.08;;;5.00;75.00;;;;;;5052132;28;20041;-66
2023/03/16 00:52:22;;;;;;;6.35;2.30;;;5.00;75.20;;;;;;5051799;28;20382;-66
2023/03/16 00:54:48;;;;;;;6.72;2.60;;;4.90;75.20;;;;;;5051629;28;20044;-66
2023/03/16 00:57:17;;;;;;;6.72;2.60;;;4.90;76.10;;;;;;5051804;28;20037;-66
2023/03/16 00:59:44;;;;;;;5.95;2.45;;;4.90;75.50;;;;;;5051729;28;20045;-66
2023/03/16 01:02:11;;;;;;;6.93;2.65;;;4.90;75.80;;;;;;5051754;28;20048;-67
2023/03/16 01:04:38;;;;;;;6.38;2.25;;;4.90;75.80;;;;;;5051892;28;20485;-66
2023/03/16 01:07:05;;;;;;;13.05;2.72;;;4.90;76.00;;;;;;5051937;28;20104;-66
2023/03/16 01:09:35;;;;;;;5.13;2.42;;;4.90;76.20;;;;;;5051662;28;20084;-66
2023/03/16 01:12:05;;;;;;;12.85;3.22;;;4.90;76.30;;;;;;5052126;28;20090;-66
2023/03/16 01:14:31;;;;;;;7.60;2.58;;;4.90;76.50;;;;;;5051579;28;20033;-66
2023/03/16 01:16:57;;;;;;;8.30;2.92;;;4.80;76.70;;;;;;5051515;28;20053;-66
2023/03/16 01:19:23;;;;;;;7.22;2.80;;;4.80;77.00;;;;;;5051840;28;20044;-66
2023/03/16 01:21:48;;;;;;;8.38;2.85;;;4.80;77.10;;;;;;5051560;28;20037;-66
2023/03/16 01:24:14;;;;;;;7.00;2.60;;;4.80;77.30;;;;;;5051728;28;20052;-66
2023/03/16 01:26:39;;;;;;;7.05;2.67;;;4.80;77.30;;;;;;5051764;28;20044;-66
2023/03/16 01:29:05;;;;;;;7.25;2.75;;;4.80;77.50;;;;;;5051497;28;20410;-66
2023/03/16 01:31:30;;;;;;;7.45;3.20;;;4.80;77.70;;;;;;5051744;28;20094;-66
2023/03/16 01:33:56;;;;;;;8.02;3.20;;;4.70;77.80;;;;;;5051638;28;20512;-66
2023/03/16 01:36:22;;;;;;;10.00;3.45;;;4.70;77.90;;;;;;5052246;28;20037;-66
2023/03/16 01:38:48;;;;;;;8.23;2.63;;;4.70;78.00;;;;;;5054369;28;20520;-66
2023/03/16 01:41:14;;;;;;;8.23;3.10;;;4.70;78.10;;;;;;5055231;28;20043;-66
2023/03/16 01:43:42;;;;;;;8.65;3.28;;;4.70;78.20;;;;;;5055147;28;20571;-67
2023/03/16 01:46:18;;;;;;;7.15;2.85;;;4.70;78.40;;;;;;5056358;28;20505;-67
2023/03/16 01:48:55;;;;;;;8.38;3.75;;;4.70;78.50;;;;;;5055378;28;20440;-67
2023/03/16 01:51:31;;;;;;;10.10;3.17;;;4.60;78.70;;;;;;5055127;28;20049;-67
2023/03/16 01:54:23;;;;;;;8.95;3.30;;;4.60;78.90;;;;;;5054999;28;20045;-67
2023/03/16 01:56:55;;;;;;;8.60;3.45;;;4.60;79.90;;;;;;5052778;28;20421;-67
2023/03/16 01:59:23;;;;;;;8.15;3.58;;;4.50;79.20;;;;;;5054975;28;20032;-67
2023/03/16 02:01:50;;;;;;;10.27;3.63;;;4.50;79.30;;;;;;5054908;28;20056;-67
2023/03/16 02:04:28;;;;;;;8.98;3.33;;;4.50;79.50;;;;;;5054788;28;20094;-67
2023/03/16 02:06:56;;;;;;;11.85;4.20;;;4.50;79.50;;;;;;5056318;28;20037;-66
2023/03/16 02:09:23;;;;;;;8.85;3.58;;;4.50;79.50;;;;;;5055013;28;20052;-66
2023/03/16 02:11:50;;;;;;;10.60;3.75;;;4.50;79.70;;;;;;5054728;28;20073;-67
2023/03/16 02:14:16;;;;;;;11.00;3.40;;;4.50;79.70;;;;;;5054598;28;20049;-67
2023/03/16 02:16:42;;;;;;;9.57;3.40;;;4.50;79.80;;;;;;5054579;28;20048;-67
2023/03/16 02:19:12;;;;;;;9.93;3.58;;;4.50;79.80;;;;;;5054597;28;20048;-67
2023/03/16 02:21:54;;;;;;;7.80;3.35;;;4.50;80.00;;;;;;5054572;28;20520;-66
2023/03/16 02:24:21;;;;;;;5.82;2.80;;;4.50;80.00;;;;;;5054762;28;20037;-67
2023/03/16 02:27:00;;;;;;;7.32;3.05;;;4.50;80.00;;;;;;5054406;28;20045;-67
2023/03/16 02:29:51;;;;;;;8.80;3.63;;;4.50;80.20;;;;;;5054408;28;20048;-66
2023/03/16 02:32:17;;;;;;;9.05;3.15;;;4.50;80.30;;;;;;5054643;28;20037;-66
2023/03/16 02:34:43;;;;;;;7.90;3.38;;;4.50;80.20;;;;;;5054085;28;20114;-67
2023/03/16 02:37:10;;;;;;;9.27;3.10;;;4.50;80.20;;;;;;5054247;28;20072;-67
2023/03/16 02:39:36;;;;;;;9.23;3.80;;;4.50;80.20;;;;;;5054190;28;20048;-67
2023/03/16 02:42:03;;;;;;;8.85;3.55;;;4.50;80.40;;;;;;5054142;28;20041;-67
2023/03/16 02:44:35;;;;;;;10.40;3.58;;;4.40;80.80;;;;;;5054032;28;20112;-67
2023/03/16 02:47:06;;;;;;;11.23;3.55;;;4.50;80.60;;;;;;5054268;28;20102;-66
2023/03/16 02:49:36;;;;;;;10.02;3.20;;;4.50;80.70;;;;;;5054249;28;20051;-66
2023/03/16 02:52:04;;;;;;;7.75;3.28;;;4.50;80.60;;;;;;5053959;28;20059;-66
2023/03/16 02:54:29;;;;;;;9.05;3.30;;;4.50;80.70;;;;;;5053937;28;20049;-67
2023/03/16 02:56:55;;;;;;;7.07;2.80;;;4.50;80.80;;;;;;5053854;28;20044;-67
2023/03/16 02:59:20;;;;;;;8.38;3.10;;;4.50;80.90;;;;;;5053800;28;20497;-67
2023/03/16 03:01:46;;;;;;;6.90;2.88;;;4.40;80.80;;;;;;5053808;28;20048;-67
2023/03/16 03:04:12;;;;;;;9.35;3.13;;;4.40;81.00;;;;;;5053624;28;20045;-67
2023/03/16 03:06:38;;;;;;;7.22;2.95;;;4.40;81.10;;;;;;5053658;28;20044;-67
2023/03/16 03:09:05;;;;;;;7.40;3.60;;;4.50;81.30;;;;;;5053619;28;20045;-67
2023/03/16 03:11:31;;;;;;;5.07;2.63;;;4.50;81.30;;;;;;5053843;28;20053;-67
2023/03/16 03:13:57;;;;;;;9.18;3.40;;;4.50;81.30;;;;;;5053748;28;20492;-67
2023/03/16 03:16:23;;;;;;;6.43;3.40;;;4.50;81.40;;;;;;5053403;28;20512;-67
2023/03/16 03:18:51;;;;;;;6.38;3.63;;;4.50;81.60;;;;;;5053718;28;20134;-67
2023/03/16 03:21:17;;;;;;;6.78;2.92;;;4.60;81.40;;;;;;5053659;28;20060;-67
2023/03/16 03:23:45;;;;;;;10.25;3.13;;;4.60;81.50;;;;;;5053550;28;20045;-67
2023/03/16 03:26:11;;;;;;;5.97;2.90;;;4.60;81.60;;;;;;5053311;28;20116;-67
2023/03/16 03:28:37;;;;;;;5.63;3.10;;;4.60;81.60;;;;;;5053257;28;20041;-67
2023/03/16 03:31:02;;;;;;;8.77;2.85;;;4.60;81.70;;;;;;5053440;28;20063;-67
2023/03/16 03:33:28;;;;;;;8.88;3.17;;;4.70;81.80;;;;;;5053107;28;20512;-67
2023/03/16 03:35:58;;;;;;;6.85;2.92;;;4.70;81.90;;;;;;5053043;28;20041;-67
2023/03/16 03:38:25;;;;;;;6.30;2.55;;;4.70;81.80;;;;;;5053041;28;20520;-67
2023/03/16 03:40:51;;;;;;;7.28;2.90;;;4.70;81.70;;;;;;5052994;28;20039;-67
2023/03/16 03:43:17;;;;;;;7.25;3.10;;;4.70;81.70;;;;;;5052923;28;20091;-67
2023/03/16 03:45:43;;;;;;;7.93;2.78;;;4.70;81.90;;;;;;5052938;28;20103;-67
2023/03/16 03:48:09;;;;;;;6.50;2.80;;;4.70;81.90;;;;;;5052914;28;20080;-67
2023/03/16 03:50:37;;;;;;;6.90;2.75;;;4.70;82.00;;;;;;5052807;28;20409;-67
2023/03/16 03:53:03;;;;;;;5.60;2.58;;;4.70;82.00;;;;;;5052670;28;20166;-67
2023/03/16 03:55:28;;;;;;;7.63;2.70;;;4.70;81.90;;;;;;5052590;28;20045;-67
2023/03/16 03:57:54;;;;;;;8.35;2.75;;;4.70;81.90;;;;;;5052956;28;20097;-67
2023/03/16 04:00:20;;;;;;;5.00;2.38;;;4.70;81.90;;;;;;5051978;28;20033;-67
2023/03/16 04:02:46;;;;;;;7.55;2.85;;;4.70;82.00;;;;;;5052889;28;20092;-67
2023/03/16 04:05:12;;;;;;;7.45;2.67;;;4.70;82.00;;;;;;5052521;28;20041;-67
2023/03/16 04:07:38;;;;;;;6.10;2.40;;;4.70;82.20;;;;;;5052826;28;20039;-67
2023/03/16 04:10:05;;;;;;;7.13;2.70;;;4.80;82.30;;;;;;5052503;28;20412;-67
2023/03/16 04:12:31;;;;;;;6.53;2.78;;;4.80;82.40;;;;;;5052688;28;20045;-67
2023/03/16 04:14:56;;;;;;;6.00;3.22;;;4.80;82.50;;;;;;5052250;28;20044;-67
2023/03/16 04:17:22;;;;;;;6.78;3.05;;;4.80;82.60;;;;;;5052371;28;20041;-67
2023/03/16 04:19:48;;;;;;;6.63;2.80;;;4.70;82.50;;;;;;5052283;28;20112;-67
2023/03/16 04:22:14;;;;;;;7.90;3.05;;;4.80;82.80;;;;;;5052256;28;20040;-67
2023/03/16 04:24:42;;;;;;;6.95;2.90;;;4.80;82.90;;;;;;5053414;28;20405;-67
2023/03/16 04:27:10;;;;;;;7.53;2.95;;;4.80;82.90;;;;;;5054019;28;20047;-67
2023/03/16 04:29:37;;;;;;;5.07;2.70;;;4.80;82.90;;;;;;5052443;28;20045;-67
2023/03/16 04:32:04;;;;;;;6.07;2.80;;;4.80;83.00;;;;;;5052097;28;20444;-67
2023/03/16 04:34:30;;;;;;;7.05;2.72;;;4.70;83.10;;;;;;5052269;28;20388;-67
2023/03/16 04:36:56;;;;;;;6.20;2.78;;;4.70;83.20;;;;;;5051973;28;20508;-67
2023/03/16 04:39:22;;;;;;;7.13;2.80;;;4.80;83.30;;;;;;5051986;28;20122;-67
2023/03/16 04:41:48;;;;;;;6.45;2.95;;;4.80;83.30;;;;;;5035396;28;20043;-67
2023/03/16 04:44:13;;;;;;;5.57;2.78;;;4.80;83.30;;;;;;5052177;28;20037;-67
2023/03/16 04:46:39;;;;;;;5.20;3.00;;;4.80;83.40;;;;;;5051922;28;20090;-67
2023/03/16 04:49:08;;;;;;;6.40;3.10;;;4.80;83.50;;;;;;5053168;28;20125;-67
2023/03/16 04:51:39;;;;;;;6.97;3.08;;;4.80;83.60;;;;;;5052111;28;20095;-67
2023/03/16 04:54:05;;;;;;;6.88;2.95;;;4.80;83.60;;;;;;5051930;28;20048;-67
2023/03/16 04:56:31;;;;;;;8.27;3.17;;;4.80;83.70;;;;;;5051839;28;20127;-67
2023/03/16 04:58:56;;;;;;;8.65;2.78;;;4.80;83.80;;;;;;5052990;28;20520;-67
2023/03/16 05:01:22;;;;;;;6.25;3.20;;;4.80;83.90;;;;;;5051766;28;20041;-67
2023/03/16 05:03:48;;;;;;;6.47;2.75;;;4.80;84.00;;;;;;5051663;28;20045;-67
2023/03/16 05:06:15;;;;;;;6.47;3.13;;;4.80;84.00;;;;;;5051701;28;20033;-67
2023/03/16 05:08:40;;;;;;;7.15;3.05;;;4.80;84.20;;;;;;5035314;28;20049;-67
2023/03/16 05:11:06;;;;;;;7.22;2.92;;;4.80;84.20;;;;;;5052133;28;20051;-67
2023/03/16 05:13:33;;;;;;;7.57;3.47;;;4.70;84.30;;;;;;5039336;28;20128;-67
2023/03/16 05:15:58;;;;;;;5.95;2.80;;;4.70;84.40;;;;;;5055680;28;20387;-67
2023/03/16 05:18:24;;;;;;;6.40;3.20;;;4.70;84.40;;;;;;5057228;28;20079;-67
2023/03/16 05:20:54;;;;;;;8.10;3.20;;;4.80;84.70;;;;;;5055683;28;20414;-67
2023/03/16 05:23:20;;;;;;;6.80;3.13;;;4.70;84.90;;;;;;5055768;28;20044;-67
2023/03/16 05:25:47;;;;;;;7.63;3.28;;;4.70;84.90;;;;;;5055861;28;20049;-67
2023/03/16 05:28:13;;;;;;;6.10;3.13;;;4.80;85.00;;;;;;5055496;28;20045;-67
2023/03/16 05:30:40;;;;;;;8.25;3.58;;;4.70;85.00;;;;;;5055483;28;20505;-67
2023/03/16 05:33:06;;;;;;;8.35;3.50;;;4.70;85.10;;;;;;5055376;28;20047;-67
2023/03/16 05:35:32;;;;;;;8.73;3.17;;;4.70;85.20;;;;;;5055584;28;20120;-67
2023/03/16 05:37:57;;;;;;;6.63;3.13;;;4.70;85.50;;;;;;5055388;28;20493;-67
2023/03/16 05:40:23;;;;;;;5.35;3.42;;;4.70;85.50;;;;;;5055305;28;20044;-67
2023/03/16 05:42:54;;;;;;;7.57;3.47;;;4.70;85.40;;;;;;5055501;28;20063;-67
2023/03/16 05:45:20;;;;;;;5.40;2.83;;;4.70;85.50;;;;;;5055395;28;20063;-67
2023/03/16 05:47:46;;;;;;;7.22;3.20;;;4.70;85.70;;;;;;5055180;28;20055;-67
2023/03/16 05:50:13;;;;;;;7.95;3.45;;;4.70;85.80;;;;;;5055375;28;20037;-67
2023/03/16 05:52:39;;;;;;;5.90;3.30;;;4.70;85.90;;;;;;5055079;28;20119;-67
2023/03/16 05:55:07;;;;;;;7.63;2.97;;;4.70;86.20;;;;;;5054711;28;20041;-67
2023/03/16 05:57:33;;;;;;;5.32;3.20;;;4.80;86.30;;;;;;5038363;28;20123;-67
2023/03/16 06:00:00;;;;;;;8.65;3.55;;;4.70;86.30;;;;;;5054950;28;20037;-67
2023/03/16 06:02:26;;;;;;;6.15;3.20;;;4.80;86.60;;;;;;5054889;28;20048;-67
2023/03/16 06:04:52;;;;;;;6.38;3.38;;;4.80;86.80;;;;;;5054810;28;20047;-67
2023/03/16 06:07:18;;;;;;;7.50;3.75;;;4.80;87.10;;;;;;5054812;28;20040;-67
2023/03/16 06:09:43;;;;;;;7.25;3.45;;;4.80;87.50;;;;;;5054782;28;20069;-67
2023/03/16 06:12:09;;;;;;;8.40;3.83;;;4.70;87.80;;;;;;5055965;28;20040;-67
2023/03/16 06:14:35;;;;;;;7.22;3.42;;;4.80;87.90;;;;;;5054867;28;20060;-67
2023/03/16 06:17:01;;;;;;;8.20;3.67;;;4.80;88.20;;;;;;5054543;28;20405;-67
2023/03/16 06:19:26;;;;;;;7.88;3.45;;;4.80;88.50;;;;;;5054607;28;20048;-67
2023/03/16 06:21:52;;;;;;;8.77;3.42;;;4.80;88.60;;;;;;5054521;28;20126;-66
2023/03/16 06:24:17;;;;;;;6.78;3.30;;;4.80;88.90;;;;;;5053717;28;20071;-66
2023/03/16 06:26:43;;;;;;;6.70;3.30;;;4.80;89.30;;;;;;5054447;28;20083;-66
2023/03/16 06:29:09;;;;;;;9.40;3.28;;;4.80;89.50;;;;;;5054398;28;20049;-66
2023/03/16 06:31:35;;;;;;;6.88;3.22;;;4.80;89.50;;;;;;5054371;28;20049;-66
2023/03/16 06:34:01;;;;;;;9.75;3.22;;;4.80;89.50;;;;;;5054246;28;20055;-66
2023/03/16 06:36:27;;;;;;;9.05;3.50;;;4.80;89.60;;;;;;5054210;28;20056;-66
2023/03/16 06:38:52;;;;;;;5.28;2.90;;;4.80;89.50;;;;;;5054220;28;20123;-66
2023/03/16 06:41:18;;;;;;;6.60;3.20;;;4.80;89.40;;;;;;5054446;28;20045;-67
2023/03/16 06:43:43;;;;;;;7.40;3.72;;;4.90;89.50;;;;;;5054107;28;20454;-67
2023/03/16 06:46:09;;;;;;;7.72;4.18;;;4.90;89.50;;;;;;5054347;28;20071;-67
2023/03/16 06:48:35;;;;;;;7.88;3.38;;;4.90;89.50;;;;;;5054069;28;20076;-67
2023/03/16 06:51:01;;;;;;;7.03;3.22;;;4.90;89.60;;;;;;5054034;28;20088;-67
2023/03/16 06:53:27;;;;;;;6.03;3.60;;;4.90;89.90;;;;;;5053870;28;20037;-67
2023/03/16 06:55:52;;;;;;;5.95;3.00;;;4.90;89.90;;;;;;5053879;28;20091;-67
2023/03/16 06:58:18;;;;;;;6.57;2.70;;;4.90;89.80;;;;;;5053950;28;20037;-67
2023/03/16 07:00:43;;;;;;;7.45;3.50;;;5.00;89.70;;;;;;5054087;28;20037;-67
2023/03/16 07:03:09;;;;;;;7.32;3.20;;;5.00;89.70;;;;;;5053720;28;20533;-67
2023/03/16 07:05:35;;;;;;;4.93;3.15;;;5.00;89.70;;;;;;5054003;28;20045;-67
2023/03/16 07:08:00;;;;;;;7.15;3.10;;;5.00;89.70;;;;;;5053708;28;20413;-66
2023/03/16 07:10:26;;;;;;;5.72;3.47;;;5.00;89.90;;;;;;5053654;28;20045;-66
2023/03/16 07:12:52;;;;;;;8.07;3.05;;;5.00;89.80;;;;;;5053868;28;20095;-66
2023/03/16 07:15:18;;;;;;;9.40;3.90;;;5.00;90.00;;;;;;5053391;28;20447;-66
2023/03/16 07:17:44;;;;;;;5.80;2.85;;;5.00;89.90;;;;;;5053493;28;20059;-66
2023/03/16 07:20:11;;;;;;;6.53;3.30;;;5.00;90.00;;;;;;5053453;28;20045;-66
2023/03/16 07:22:38;;;;;;;5.93;3.00;;;5.10;90.00;;;;;;5053425;28;20037;-66
2023/03/16 07:25:05;;;;;;;8.43;3.13;;;5.10;90.00;;;;;;5053517;28;20041;-67
2023/03/16 07:27:30;;;;;;;7.38;2.72;;;5.10;90.30;;;;;;5053317;28;20037;-66
2023/03/16 07:29:56;;;;;;;5.72;3.30;;;5.10;90.00;;;;;;5053248;28;20041;-66
2023/03/16 07:32:22;;;;;;;6.32;2.90;;;5.10;90.00;;;;;;5053274;28;20044;-66
2023/03/16 07:34:47;;;;;;;7.40;3.45;;;5.10;90.10;;;;;;5052531;28;20044;-66
2023/03/16 07:37:14;;;;;;;8.38;3.58;;;5.20;90.10;;;;;;5052863;28;20460;-66
2023/03/16 07:39:40;;;;;;;7.75;3.22;;;5.20;90.10;;;;;;5053212;28;20402;-66
2023/03/16 07:42:06;;;;;;;6.80;2.97;;;5.20;90.10;;;;;;5053205;28;20041;-66
2023/03/16 07:44:32;;;;;;;5.43;3.17;;;5.20;90.20;;;;;;5053085;28;20045;-67
2023/03/16 07:46:57;;;;;;;5.93;3.13;;;5.30;90.20;;;;;;5053265;28;20047;-67
2023/03/16 07:49:23;;;;;;;6.88;3.30;;;5.30;90.20;;;;;;5053134;28;20048;-67
2023/03/16 07:51:49;;;;;;;7.13;2.80;;;5.30;90.20;;;;;;5053200;28;20084;-67
2023/03/16 07:54:14;;;;;;;6.03;3.00;;;5.30;90.20;;;;;;5052875;28;20454;-67
2023/03/16 07:56:40;;;;;;;7.78;3.80;;;5.40;90.20;;;;;;5052739;28;20577;-67
2023/03/16 07:59:06;;;;;;;7.55;3.15;;;5.40;90.30;;;;;;5052684;28;20423;-67
2023/03/16 08:01:33;;;;;;;7.68;3.63;;;5.40;90.30;;;;;;5052663;28;20049;-67
2023/03/16 08:04:00;;;;;;;5.82;2.95;;;5.40;90.30;;;;;;5052557;28;20497;-67
2023/03/16 08:06:26;;;;;;;10.10;3.05;;;5.50;90.50;;;;;;5052574;28;20041;-67
2023/03/16 08:08:52;;;;;;;5.75;3.28;;;5.50;90.50;;;;;;5052783;28;20041;-67
2023/03/16 08:11:22;;;;;;;6.10;3.83;;;5.50;90.40;;;;;;5052533;28;20497;-67
2023/03/16 08:13:52;;;;;;;8.48;3.42;;;5.50;90.60;;;;;;5052420;28;20064;-67
2023/03/16 08:16:20;;;;;;;6.65;3.50;;;5.60;90.80;;;;;;5052343;28;20049;-67
2023/03/16 08:18:46;;;;;;;7.45;3.10;;;5.60;91.00;;;;;;5052283;28;20087;-67
2023/03/16 08:21:11;;;;;;;7.45;3.58;;;5.60;91.10;;;;;;5069000;28;20036;-67
2023/03/16 08:23:37;;;;;;;6.07;3.47;;;5.60;91.30;;;;;;5053998;28;20041;-67
2023/03/16 08:26:07;;;;;;;5.57;3.35;;;5.60;91.40;;;;;;5052246;28;20041;-66
2023/03/16 08:28:34;;;;;;;4.13;3.13;;;5.60;91.70;;;;;;5053734;28;20351;-67
2023/03/16 08:30:59;;;;;;;6.45;3.20;;;5.60;91.80;;;;;;5052180;28;20044;-69
2023/03/16 08:33:26;;;;;;;10.20;3.75;;;5.60;92.10;;;;;;5053289;28;20040;-67
2023/03/16 08:35:53;;;;;;;5.68;3.30;;;5.60;92.40;;;;;;5052155;28;20454;-67
2023/03/16 08:38:19;;;;;;;5.70;3.55;;;5.60;92.70;;;;;;5051940;28;20052;-67
2023/03/16 08:40:47;;;;;;;7.07;3.80;;;5.60;93.10;;;;;;5051925;28;20120;-67
2023/03/16 08:43:13;;;;;;;7.85;4.15;;;5.50;93.30;;;;;;5051883;28;20048;-67
2023/03/16 08:45:39;;;;;;;7.53;3.63;;;5.50;93.60;;;;;;5053197;28;20045;-67
2023/03/16 08:48:06;;;;;;;9.18;4.35;;;5.50;94.10;;;;;;5051605;28;20041;-67
2023/03/16 08:50:32;;;;;;;8.60;4.03;;;5.50;94.60;;;;;;5052149;28;20060;-67
2023/03/16 08:52:58;;;;;;;9.50;4.00;;;5.50;94.90;;;;;;5051802;28;20068;-67
2023/03/16 08:55:23;;;;;;;6.15;3.53;;;5.50;95.30;;;;;;5051538;28;20087;-67
2023/03/16 08:57:50;;;;;;;6.50;4.30;;;5.50;95.70;;;;;;5052129;28;20136;-67
2023/03/16 09:00:16;;;;;;;7.15;4.00;;;5.50;96.00;;;;;;5051778;28;20466;-67
2023/03/16 09:02:42;;;;;;;7.18;3.72;;;5.50;96.50;;;;;;5052024;28;20222;-67
2023/03/16 09:05:13;;;;;;;7.78;4.15;;;5.50;96.90;;;;;;5051680;28;20048;-67
2023/03/16 09:07:39;;;;;;;7.25;3.88;;;5.50;97.40;;;;;;5052078;28;20045;-67
2023/03/16 09:10:12;;;;;;;9.75;4.43;;;5.50;97.60;;;;;;5052824;28;20397;-67
2023/03/16 09:12:39;;;;;;;6.35;4.35;;;5.50;98.10;;;;;;5051685;28;20455;-67
2023/03/16 09:15:06;;;;;;;7.50;4.13;;;5.50;98.60;;;;;;5051477;28;20560;-67
2023/03/16 09:17:32;;;;;;;8.05;4.38;;;5.50;99.20;;;;;;5051707;28;20037;-67
2023/03/16 09:19:57;;;;;;;8.13;4.03;;;5.50;99.80;;;;;;5051590;28;20072;-67
2023/03/16 09:22:24;;;;;;;7.60;4.18;;;5.50;99.90;;;;;;5051543;28;20092;-67
2023/03/16 09:24:50;;;;;;;7.13;4.45;;;5.50;99.90;;;;;;5051441;28;20044;-67
2023/03/16 09:27:16;;;;;;;6.68;4.50;;;5.50;99.90;;;;;;5051495;28;20409;-67
2023/03/16 09:29:42;;;;;;;7.47;4.55;;;5.50;99.90;;;;;;5051484;28;20460;-67
2023/03/16 09:32:08;;;;;;;8.25;4.32;;;5.60;99.90;;;;;;5051485;28;20037;-67
2023/03/16 09:34:34;;;;;;;6.18;4.03;;;5.70;99.90;;;;;;5051642;28;20536;-67
2023/03/16 09:37:00;;;;;;;8.35;4.50;;;5.70;99.90;;;;;;5051363;28;20076;-67
2023/03/16 09:39:26;;;;;;;9.63;4.40;;;5.80;99.90;;;;;;5051692;28;20187;-67
2023/03/16 09:42:03;;;;;;;8.02;4.07;;;5.80;99.90;;;;;;5051437;28;20041;-67
2023/03/16 09:44:40;;;;;;;7.07;4.50;;;5.90;99.90;;;;;;5051349;28;20075;-67
2023/03/16 09:47:10;;;;;;;7.03;4.25;;;5.90;99.90;;;;;;5051572;28;20097;-67
2023/03/16 09:49:42;;;;;;;13.10;5.13;;;6.00;99.90;;;;;;5051299;28;20040;-67
2023/03/16 09:52:29;;;;;;;9.40;4.88;;;6.00;99.90;;;;;;5051688;28;20123;-67
2023/03/16 09:55:23;;;;;;;8.07;4.80;;;6.00;99.90;;;;;;5051264;28;20045;-67
2023/03/16 09:57:50;;;;;;;10.02;4.28;;;6.00;99.90;;;;;;5051384;28;20443;-67
2023/03/16 10:00:20;;;;;;;9.23;4.88;;;6.00;99.90;;;;;;5054824;28;20466;-67
2023/03/16 10:03:12;;;;;;;8.63;4.65;;;6.00;99.90;;;;;;5038545;28;20037;-67
2023/03/16 10:05:38;;;;;;;6.05;4.22;;;6.10;99.90;;;;;;5055251;28;20041;-67
2023/03/16 10:08:11;;;;;;;9.25;5.00;;;6.10;99.90;;;;;;5054848;28;20041;-67
2023/03/16 10:10:40;;;;;;;;;;;6.10;99.90;;;;;;5055222;28;20409;-67
2023/03/16 10:13:17;;;;;;;13.13;4.78;;;6.00;99.90;;;;;;5054666;28;20449;-67
2023/03/16 10:15:44;;;;;;;8.23;4.72;;;6.00;99.90;;;;;;5054839;28;20085;-67
2023/03/16 10:18:23;;;;;;;7.13;4.60;;;6.00;99.90;;;;;;5054883;28;20116;-67
2023/03/16 10:20:51;;;;;;;8.48;4.60;;;6.10;99.90;;;;;;5054910;28;20106;-67
2023/03/16 10:23:20;;;;;;;8.85;5.07;;;6.10;99.90;;;;;;5054483;28;20045;-67
2023/03/16 10:25:47;;;;;;;9.20;4.40;;;6.20;99.90;;;;;;5054498;28;20033;-67
2023/03/16 10:28:27;;;;;;;9.60;4.38;;;6.30;99.90;;;;;;5054422;28;20390;-67
2023/03/16 10:30:58;;;;;;;9.70;4.50;;;6.30;99.90;;;;;;5054694;28;20052;-67
2023/03/16 10:33:27;;;;;;;6.68;3.95;;;6.40;99.90;;;;;;5054547;28;20042;-67
2023/03/16 10:36:14;;;;;;;7.78;4.65;;;6.30;99.90;;;;;;5054281;28;20110;-67
2023/03/16 10:38:41;;;;;;;7.55;4.63;;;6.40;99.90;;;;;;5054254;28;20485;-67
2023/03/16 10:41:21;;;;;;;9.52;4.80;;;6.40;99.90;;;;;;5054213;28;20033;-67
2023/03/16 10:43:54;;;;;;;7.95;5.03;;;6.40;99.90;;;;;;5054281;28;20087;-67
2023/03/16 10:46:21;;;;;;;5.28;3.65;;;6.40;99.90;;;;;;5054162;28;20041;-67
2023/03/16 10:49:00;;;;;;;7.68;4.53;;;6.40;99.90;;;;;;5054032;28;20410;-67
2023/03/16 10:51:36;;;;;;;6.55;3.67;;;6.50;99.90;;;;;;5054024;28;20052;-67
2023/03/16 10:54:31;;;;;;;7.95;4.10;;;6.50;99.90;;;;;;5053996;28;20119;-67
2023/03/16 10:56:57;;;;;;;6.43;4.32;;;6.60;99.90;;;;;;5049771;28;20112;-67
2023/03/16 10:59:34;;;;;;;7.85;4.45;;;6.60;99.90;;;;;;5053870;28;20076;-67
2023/03/16 11:02:10;;;;;;;6.82;3.90;;;6.60;99.90;;;;;;5037504;28;20041;-67
2023/03/16 11:04:36;;;;;;;8.15;3.88;;;6.70;99.90;;;;;;5053718;28;20041;-67
2023/03/16 11:07:08;;;;;;;5.57;3.75;;;6.80;99.90;;;;;;5053763;28;20045;-67
2023/03/16 11:09:33;;;;;;;9.93;4.13;;;6.70;99.90;;;;;;5053453;28;20417;-66
2023/03/16 11:12:12;;;;;;;8.90;4.00;;;6.80;99.90;;;;;;5053649;28;20044;-68
2023/03/16 11:14:43;;;;;;;6.55;4.30;;;6.80;99.90;;;;;;5053597;28;20052;-68
2023/03/16 11:17:17;;;;;;;6.85;4.25;;;6.80;99.90;;;;;;5054062;28;20045;-68
2023/03/16 11:19:58;;;;;;;8.50;4.10;;;6.90;99.90;;;;;;5053496;28;20553;-68
2023/03/16 11:22:24;;;;;;;8.48;4.22;;;6.90;99.90;;;;;;5053458;28;20408;-67
2023/03/16 11:25:04;;;;;;;7.43;3.92;;;6.90;99.90;;;;;;5053471;28;20595;-67
2023/03/16 11:27:52;;;;;;;9.18;3.75;;;6.90;99.90;;;;;;5053619;28;20068;-67
2023/03/16 11:30:58;;;;;;;7.72;4.40;;;7.00;99.90;;;;;;5053599;28;20129;-67
2023/03/16 11:33:26;;;;;;;5.53;3.67;;;7.00;99.90;;;;;;5042087;28;20087;-67
2023/03/16 11:36:02;;;;;;;7.30;3.28;;;7.00;99.90;;;;;;5036718;28;20098;-67
2023/03/16 11:39:00;;;;;;;8.15;4.30;;;7.10;99.90;;;;;;5053364;28;20044;-67
2023/03/16 11:41:34;;;;;;;7.82;4.57;;;7.20;99.90;;;;;;5053148;28;20052;-68
2023/03/16 11:44:11;;;;;;;9.07;3.53;;;7.20;99.90;;;;;;5053169;28;20037;-67
2023/03/16 11:46:42;;;;;;;5.70;3.75;;;7.40;99.90;;;;;;5053012;28;20099;-67
2023/03/16 11:49:43;;;;;;;7.90;3.53;;;7.40;99.90;;;;;;5052894;28;20045;-67
2023/03/16 11:52:34;;;;;;;7.65;3.33;;;7.50;99.90;;;;;;5036351;28;20041;-67
2023/03/16 11:55:18;;;;;;;7.07;4.00;;;7.50;99.90;;;;;;5052777;28;20455;-67
2023/03/16 11:57:52;;;;;;;7.00;3.45;;;7.60;99.90;;;;;;5053641;28;20041;-67
2023/03/16 12:00:43;;;;;;;4.68;3.35;;;7.70;99.90;;;;;;5053033;28;20044;-67
2023/03/16 12:03:36;;;;;;;5.80;3.20;;;7.90;99.90;;;;;;5052962;28;20466;-68
2023/03/16 12:06:08;;;;;;;6.35;3.45;;;8.10;99.90;;;;;;5053161;28;20520;-69
2023/03/16 12:08:39;;;;;;;12.25;3.30;;;8.20;99.90;;;;;;5052955;28;20084;-68
2023/03/16 12:11:16;;;;;;;7.47;3.33;;;8.30;99.90;;;;;;5053988;28;20049;-68
2023/03/16 12:14:14;;;;;;;6.65;3.17;;;8.50;99.90;;;;;;5053065;28;20068;-68
2023/03/16 12:16:45;;;;;;;5.60;3.00;;;8.60;99.90;;;;;;5052753;28;20049;-68
2023/03/16 12:19:32;;;;;;;7.00;3.08;;;8.70;99.90;;;;;;5052381;28;20090;-68
2023/03/16 12:22:31;;;;;;;4.43;3.05;;;8.90;99.90;;;;;;5051879;28;20041;-68
2023/03/16 12:24:56;;;;;;;6.90;3.15;;;9.00;99.90;;;;;;5015183;28;20133;-69
2023/03/16 12:27:29;;;;;;;6.18;3.00;;;8.90;99.90;;;;;;5032017;28;20124;-68
2023/03/16 12:30:11;;;;;;;6.20;2.90;;;8.90;99.90;;;;;;5015567;28;20057;-69
2023/03/16 12:33:01;;;;;;;3.85;2.85;;;8.80;99.90;;;;;;5015511;28;20454;-69
2023/03/16 12:35:57;;;;;;;8.35;3.08;;;8.80;99.90;;;;;;5015208;28;20614;-69
2023/03/16 12:38:55;;;;;;;5.47;2.90;;;8.90;99.90;;;;;;5001246;28;20053;-69
2023/03/16 12:41:27;;;;;;;5.18;2.83;;;8.90;99.90;;;;;;5031567;28;20094;-68
2023/03/16 12:44:01;;;;;;;6.65;3.08;;;8.90;99.90;;;;;;5014809;28;20044;-68
2023/03/16 12:46:27;;;;;;;6.47;2.88;;;8.90;99.90;;;;;;5015247;28;20045;-68
2023/03/16 12:48:57;;;;;;;5.13;2.90;;;8.90;99.90;;;;;;5014888;28;20053;-68
2023/03/16 12:51:38;;;;;;;4.97;2.50;;;9.00;99.90;;;;;;5014671;28;20095;-68
2023/03/16 12:54:06;;;;;;;5.13;2.60;;;9.00;99.90;;;;;;5014412;28;20053;-68
2023/03/16 12:56:35;;;;;;;8.80;2.78;;;8.90;99.90;;;;;;5014651;28;20469;-68
2023/03/16 12:59:06;;;;;;;4.70;2.70;;;8.90;99.90;;;;;;5014595;28;20041;-68
2023/03/16 13:01:42;;;;;;;4.88;2.53;;;8.90;99.90;;;;;;5044158;28;20057;-69
2023/03/16 13:04:18;;;;;;;6.75;2.40;;;8.80;99.90;;;;;;5052322;28;20037;-69
2023/03/16 13:06:50;;;;;;;6.20;3.03;;;8.80;99.90;;;;;;5051783;28;20063;-69
2023/03/16 13:09:24;;;;;;;7.07;2.80;;;8.80;99.90;;;;;;5051754;28;20052;-69